Time;durP1;ratioP1;P1;durP2;ratioP2;P2;SDS_P1;SDS_P2;PMS_P1;PMS_P2;Temp;Humidity;BMP_temperature;BMP_pressure;BME280_temperature;BME280_humidity;BME280_pressure;Samples;Min_cycle;Max_cycle;Signal;HPM_P1;HPM_P2
2023/04/12 00:01:09;;;;;;;0.50;0.50;;;6.30;99.90;;;;;;5019735;28;20034;-88
2023/04/12 00:03:35;;;;;;;0.60;0.60;;;6.30;99.90;;;;;;5023677;28;20049;-87
2023/04/12 00:06:02;;;;;;;0.60;0.60;;;6.20;99.90;;;;;;5008454;28;20046;-86
2023/04/12 00:08:34;;;;;;;0.85;0.68;;;6.20;99.90;;;;;;5025273;28;20041;-87
2023/04/12 00:11:01;;;;;;;0.70;0.70;;;6.20;99.90;;;;;;5037877;28;20034;-86
2023/04/12 00:13:28;;;;;;;0.60;0.60;;;6.20;99.90;;;;;;5007600;28;20447;-86
2023/04/12 00:15:54;;;;;;;0.60;0.60;;;6.20;99.90;;;;;;5019427;28;20418;-86
2023/04/12 00:18:23;;;;;;;0.60;0.60;;;6.30;99.90;;;;;;5018697;28;20041;-88
2023/04/12 00:20:51;;;;;;;0.60;0.60;;;6.30;99.90;;;;;;5029320;28;20053;-87
2023/04/12 00:23:17;;;;;;;0.57;0.57;;;6.20;99.90;;;;;;5027762;28;20084;-87
2023/04/12 00:25:44;;;;;;;0.35;0.35;;;6.30;99.90;;;;;;5022299;28;20049;-87
2023/04/12 00:28:10;;;;;;;0.50;0.50;;;6.30;99.90;;;;;;5027368;28;20037;-87
2023/04/12 00:30:36;;;;;;;0.85;0.85;;;6.30;99.90;;;;;;5029065;28;20054;-86
2023/04/12 00:33:01;;;;;;;0.63;0.63;;;6.30;99.90;;;;;;5030860;28;20041;-85
2023/04/12 00:35:27;;;;;;;0.82;0.80;;;6.30;99.90;;;;;;5026484;28;20058;-87
2023/04/12 00:37:54;;;;;;;0.50;0.50;;;6.30;99.90;;;;;;5031015;28;20068;-87
2023/04/12 00:40:20;;;;;;;0.50;0.50;;;6.40;99.90;;;;;;5034104;28;20049;-85
2023/04/12 00:42:45;;;;;;;0.50;0.50;;;6.50;99.90;;;;;;5031915;28;20049;-86
2023/04/12 00:45:13;;;;;;;0.70;0.70;;;6.50;99.90;;;;;;5030682;28;20049;-86
2023/04/12 00:47:42;;;;;;;0.50;0.50;;;6.50;99.90;;;;;;5028513;28;20046;-83
2023/04/12 00:50:09;;;;;;;0.60;0.60;;;6.60;99.90;;;;;;5033351;28;20061;-85
2023/04/12 00:52:35;;;;;;;0.60;0.60;;;6.60;99.90;;;;;;5030329;28;20046;-88
2023/04/12 00:55:05;;;;;;;1.30;1.30;;;6.60;99.90;;;;;;5009475;28;20057;-87
2023/04/12 00:57:35;;;;;;;0.77;0.77;;;6.60;99.90;;;;;;5030924;28;20400;-87
2023/04/12 01:00:03;;;;;;;1.02;1.02;;;6.60;99.90;;;;;;5011212;28;20134;-88
2023/04/12 01:02:30;;;;;;;0.60;0.60;;;6.60;99.90;;;;;;5043604;28;20030;-86
2023/04/12 01:04:57;;;;;;;;;;;6.60;99.90;;;;;;5044738;28;20057;-86
2023/04/12 01:07:43;;;;;;;0.70;0.70;;;6.60;99.90;;;;;;5029299;28;19925;-83
2023/04/12 01:10:17;;;;;;;1.80;1.80;;;6.20;99.90;;;;;;5026550;28;20057;-87
2023/04/12 01:13:13;;;;;;;0.40;0.40;;;6.70;99.90;;;;;;5020165;28;20057;-87
2023/04/12 01:15:50;;;;;;;0.50;0.50;;;6.60;99.90;;;;;;5027952;28;20053;-85
2023/04/12 01:18:20;;;;;;;0.40;0.40;;;6.60;99.90;;;;;;5047139;28;20041;-87
2023/04/12 01:21:04;;;;;;;0.50;0.50;;;6.60;99.90;;;;;;5029723;28;20061;-86
2023/04/12 01:23:49;;;;;;;0.50;0.50;;;6.70;99.90;;;;;;5026939;28;20085;-84
2023/04/12 01:26:43;;;;;;;0.45;0.45;;;7.50;99.90;;;;;;5031729;28;20077;-86
2023/04/12 01:29:15;;;;;;;0.40;0.40;;;6.70;99.90;;;;;;5027183;28;20049;-86
2023/04/12 01:31:56;;;;;;;0.40;0.40;;;6.70;99.90;;;;;;5029276;28;20110;-88
2023/04/12 01:34:24;;;;;;;0.50;0.50;;;6.70;99.90;;;;;;5021673;28;20046;-85
2023/04/12 01:36:51;;;;;;;0.60;0.60;;;6.70;99.90;;;;;;5042768;28;20138;-86
2023/04/12 01:39:17;;;;;;;0.60;0.60;;;6.80;99.90;;;;;;5034291;28;20046;-84
2023/04/12 01:41:47;;;;;;;0.60;0.60;;;6.80;99.90;;;;;;5029449;28;20114;-87
2023/04/12 01:44:17;;;;;;;0.43;0.43;;;6.80;99.90;;;;;;5044248;28;20056;-87
2023/04/12 01:46:46;;;;;;;0.50;0.50;;;6.80;99.90;;;;;;5024886;28;20413;-87
2023/04/12 01:49:13;;;;;;;0.50;0.50;;;6.90;99.90;;;;;;5012894;28;20053;-87
2023/04/12 01:51:44;;;;;;;0.60;0.60;;;6.90;99.90;;;;;;5025437;28;20046;-87
2023/04/12 01:54:20;;;;;;;0.50;0.50;;;6.90;99.90;;;;;;5027280;28;20041;-85
2023/04/12 01:56:49;;;;;;;0.45;0.45;;;7.00;99.90;;;;;;5030312;28;20045;-86
2023/04/12 01:59:17;;;;;;;0.50;0.50;;;7.00;99.90;;;;;;5025062;28;20060;-86
2023/04/12 02:01:45;;;;;;;1.25;1.25;;;7.00;99.90;;;;;;5028717;28;20121;-87
2023/04/12 02:04:12;;;;;;;0.60;0.60;;;7.00;99.90;;;;;;5024395;28;20057;-87
2023/04/12 02:06:38;;;;;;;0.50;0.50;;;7.00;99.90;;;;;;5030328;28;20088;-82
2023/04/12 02:09:07;;;;;;;0.60;0.60;;;7.10;99.90;;;;;;5025167;28;20045;-87
2023/04/12 02:11:34;;;;;;;1.35;1.35;;;7.20;99.90;;;;;;5029407;28;20061;-84
2023/04/12 02:13:59;;;;;;;1.65;1.55;;;7.30;99.90;;;;;;5034899;28;20085;-89
2023/04/12 02:16:31;;;;;;;0.50;0.50;;;7.30;99.90;;;;;;5025829;28;20091;-88
2023/04/12 02:18:57;;;;;;;0.50;0.50;;;7.40;99.90;;;;;;5039117;28;20057;-86
2023/04/12 02:21:24;;;;;;;0.90;0.90;;;7.40;99.90;;;;;;5027218;28;20053;-88
2023/04/12 02:23:50;;;;;;;0.40;0.40;;;7.50;99.90;;;;;;5030732;28;20053;-88
2023/04/12 02:26:16;;;;;;;0.75;0.75;;;7.60;99.90;;;;;;5008964;28;20194;-87
2023/04/12 02:28:43;;;;;;;23.55;1.17;;;7.60;99.90;;;;;;5010529;28;20141;-87
2023/04/12 02:31:09;;;;;;;0.50;0.50;;;7.60;99.90;;;;;;5030631;28;20443;-89
2023/04/12 02:33:34;;;;;;;0.30;0.30;;;7.60;99.90;;;;;;5020211;28;20065;-89
2023/04/12 02:36:01;;;;;;;0.60;0.60;;;7.70;99.90;;;;;;5028149;28;20095;-88
2023/04/12 02:38:28;;;;;;;0.60;0.60;;;7.60;99.90;;;;;;5023652;28;20386;-87
2023/04/12 02:40:54;;;;;;;2.10;1.85;;;7.60;99.90;;;;;;5030808;28;20049;-89
2023/04/12 02:43:20;;;;;;;0.57;0.57;;;7.60;99.90;;;;;;5022019;28;20077;-88
2023/04/12 02:45:47;;;;;;;0.60;0.60;;;7.70;99.90;;;;;;5027076;28;20136;-87
2023/04/12 02:48:12;;;;;;;0.35;0.35;;;7.70;99.90;;;;;;5029529;28;20036;-84
2023/04/12 02:50:38;;;;;;;0.77;0.68;;;7.60;99.90;;;;;;5020649;28;20046;-85
2023/04/12 02:53:04;;;;;;;0.50;0.50;;;7.60;99.90;;;;;;5022616;28;20049;-88
2023/04/12 02:55:30;;;;;;;0.50;0.50;;;7.60;99.90;;;;;;5027956;28;20061;-84
2023/04/12 02:57:56;;;;;;;0.43;0.43;;;7.60;99.90;;;;;;5029191;28;20048;-89
2023/04/12 03:00:22;;;;;;;0.52;0.52;;;7.60;99.90;;;;;;5023171;28;21701;-89
2023/04/12 03:02:50;;;;;;;0.52;0.52;;;7.60;99.90;;;;;;5024838;28;20397;-89
2023/04/12 03:05:16;;;;;;;0.50;0.50;;;7.60;99.90;;;;;;5029449;28;20060;-88
2023/04/12 03:07:42;;;;;;;0.45;0.45;;;7.60;99.90;;;;;;5050217;28;20056;-87
2023/04/12 03:10:10;;;;;;;0.60;0.60;;;7.60;99.90;;;;;;5020346;28;20118;-88
2023/04/12 03:12:36;;;;;;;0.60;0.60;;;7.60;99.90;;;;;;5022940;28;20045;-88
2023/04/12 03:15:02;;;;;;;0.70;0.70;;;7.60;99.90;;;;;;5027452;28;20037;-86
2023/04/12 03:17:27;;;;;;;0.45;0.45;;;7.60;99.90;;;;;;5022493;28;20053;-84
2023/04/12 03:19:54;;;;;;;0.85;0.85;;;7.70;99.90;;;;;;5027797;28;20424;-87
2023/04/12 03:22:20;;;;;;;0.40;0.40;;;7.60;99.90;;;;;;5028531;28;20049;-88
2023/04/12 03:24:45;;;;;;;0.63;0.63;;;7.60;99.90;;;;;;5016453;28;20520;-89
2023/04/12 03:27:11;;;;;;;0.57;0.57;;;7.60;99.90;;;;;;5024583;28;20077;-87
2023/04/12 03:29:37;;;;;;;0.40;0.40;;;7.70;99.90;;;;;;5029163;28;20500;-85
2023/04/12 03:32:03;;;;;;;0.60;0.60;;;7.70;99.90;;;;;;5008170;28;20128;-87
2023/04/12 03:34:31;;;;;;;0.60;0.60;;;7.70;99.90;;;;;;5013695;28;20044;-88
2023/04/12 03:36:58;;;;;;;0.50;0.50;;;7.70;99.90;;;;;;5029905;28;20045;-88
2023/04/12 03:39:23;;;;;;;0.75;0.75;;;7.80;99.90;;;;;;5022882;28;20463;-86
2023/04/12 03:41:51;;;;;;;0.40;0.40;;;7.80;99.90;;;;;;5027738;28;20081;-88
2023/04/12 03:44:17;;;;;;;0.60;0.60;;;7.80;99.90;;;;;;5045886;28;20053;-88
2023/04/12 03:46:43;;;;;;;0.40;0.40;;;7.80;99.90;;;;;;5029079;28;20088;-83
2023/04/12 03:49:09;;;;;;;0.60;0.60;;;7.80;99.90;;;;;;5026193;28;20099;-87
2023/04/12 03:51:35;;;;;;;0.52;0.52;;;7.70;99.90;;;;;;5024783;28;20065;-87
2023/04/12 03:54:03;;;;;;;0.65;0.65;;;7.70;99.90;;;;;;5027581;28;20037;-86
2023/04/12 03:56:29;;;;;;;1.33;1.25;;;7.70;99.90;;;;;;5025673;28;20049;-87
2023/04/12 03:58:56;;;;;;;0.50;0.50;;;7.70;99.90;;;;;;5024493;28;20064;-87
2023/04/12 04:01:22;;;;;;;0.50;0.50;;;7.70;99.90;;;;;;5045040;28;20073;-87
2023/04/12 04:03:48;;;;;;;0.50;0.50;;;7.60;99.90;;;;;;5025055;28;20060;-82
2023/04/12 04:06:13;;;;;;;0.60;0.60;;;7.70;99.90;;;;;;5024066;28;20061;-86
2023/04/12 04:08:41;;;;;;;0.60;0.60;;;7.70;99.90;;;;;;5024490;28;20057;-86
2023/04/12 04:11:07;;;;;;;0.50;0.50;;;8.10;99.90;;;;;;4988401;28;20049;-84
2023/04/12 04:13:33;;;;;;;0.40;0.40;;;7.60;99.90;;;;;;5022044;28;20045;-85
2023/04/12 04:16:03;;;;;;;0.57;0.57;;;7.70;99.90;;;;;;5021237;28;20049;-86
2023/04/12 04:18:29;;;;;;;0.47;0.47;;;7.60;99.90;;;;;;5008931;28;20115;-86
2023/04/12 04:20:55;;;;;;;0.88;0.88;;;7.60;99.90;;;;;;5023452;28;20171;-87
2023/04/12 04:23:22;;;;;;;0.45;0.45;;;7.60;99.90;;;;;;5045567;28;20038;-88
2023/04/12 04:25:48;;;;;;;0.60;0.60;;;7.60;99.90;;;;;;5011780;28;20054;-83
2023/04/12 04:28:14;;;;;;;0.50;0.50;;;7.40;99.90;;;;;;5025238;28;20579;-88
2023/04/12 04:30:44;;;;;;;0.57;0.57;;;7.50;99.90;;;;;;5025032;28;20081;-87
2023/04/12 04:33:11;;;;;;;0.60;0.60;;;7.50;99.90;;;;;;5021549;28;20042;-86
2023/04/12 04:35:39;;;;;;;0.50;0.50;;;7.40;99.90;;;;;;5027745;28;20060;-84
2023/04/12 04:38:05;;;;;;;0.40;0.40;;;7.40;99.90;;;;;;5022673;28;20068;-86
2023/04/12 04:40:31;;;;;;;0.45;0.45;;;7.40;99.90;;;;;;5024436;28;20042;-86
2023/04/12 04:42:58;;;;;;;0.50;0.50;;;7.40;99.90;;;;;;5024223;28;20053;-86
2023/04/12 04:45:29;;;;;;;0.63;0.63;;;7.40;99.90;;;;;;5024507;28;20511;-86
2023/04/12 04:47:55;;;;;;;0.60;0.60;;;7.40;99.90;;;;;;4989973;28;20057;-88
2023/04/12 04:50:23;;;;;;;0.50;0.50;;;7.40;99.90;;;;;;5026023;28;20072;-87
2023/04/12 04:52:52;;;;;;;1.65;1.17;;;7.30;99.90;;;;;;5024729;28;20459;-84
2023/04/12 04:55:23;;;;;;;0.50;0.50;;;7.30;99.90;;;;;;5038580;28;20579;-83
2023/04/12 04:57:49;;;;;;;0.50;0.50;;;7.30;99.90;;;;;;5021845;28;20049;-88
2023/04/12 05:00:15;;;;;;;0.40;0.40;;;7.30;99.90;;;;;;5027331;28;20132;-87
2023/04/12 05:02:42;;;;;;;0.60;0.60;;;7.30;99.90;;;;;;5026273;28;20128;-88
2023/04/12 05:05:09;;;;;;;1.00;1.00;;;7.30;99.90;;;;;;5026073;28;20136;-87
2023/04/12 05:07:35;;;;;;;0.40;0.40;;;7.30;99.90;;;;;;5000838;28;20379;-85
2023/04/12 05:10:02;;;;;;;0.50;0.50;;;7.30;99.90;;;;;;5009495;28;20085;-89
2023/04/12 05:12:28;;;;;;;0.63;0.63;;;7.20;99.90;;;;;;5022585;28;21210;-87
2023/04/12 05:14:54;;;;;;;0.40;0.40;;;7.20;99.90;;;;;;5021833;28;20038;-84
2023/04/12 05:17:20;;;;;;;0.57;0.57;;;7.20;99.90;;;;;;5013737;28;20099;-88
2023/04/12 05:19:45;;;;;;;0.70;0.70;;;7.20;99.90;;;;;;5029298;28;20045;-88
2023/04/12 05:22:12;;;;;;;0.60;0.60;;;7.20;99.90;;;;;;5024382;28;20046;-89
2023/04/12 05:24:38;;;;;;;0.50;0.50;;;7.20;99.90;;;;;;5023665;28;20041;-90
2023/04/12 05:27:04;;;;;;;0.60;0.60;;;7.10;99.90;;;;;;5014347;28;20049;-89
2023/04/12 05:29:30;;;;;;;;;;;7.10;99.90;;;;;;5031616;28;20083;-87
2023/04/12 05:31:55;;;;;;;0.57;0.57;;;7.10;99.90;;;;;;5020120;28;20425;-86
2023/04/12 05:34:21;;;;;;;0.60;0.60;;;7.10;99.90;;;;;;5028406;28;20067;-89
2023/04/12 05:36:47;;;;;;;0.57;0.57;;;7.10;99.90;;;;;;5043602;28;20127;-87
2023/04/12 05:39:18;;;;;;;0.50;0.50;;;7.10;99.90;;;;;;5024637;28;20045;-89
2023/04/12 05:41:44;;;;;;;0.63;0.63;;;7.10;99.90;;;;;;5022191;28;20049;-88
2023/04/12 05:44:09;;;;;;;0.50;0.50;;;7.00;99.90;;;;;;5028129;28;20125;-89
2023/04/12 05:46:35;;;;;;;14.68;0.93;;;7.00;99.90;;;;;;5033051;28;20054;-89
2023/04/12 05:49:01;;;;;;;0.60;0.60;;;7.00;99.90;;;;;;5010062;28;20449;-86
2023/04/12 05:51:26;;;;;;;0.43;0.43;;;7.00;99.90;;;;;;5034372;28;20048;-90
2023/04/12 05:53:52;;;;;;;3.70;1.30;;;7.00;99.90;;;;;;5030737;28;20476;-89
2023/04/12 05:56:18;;;;;;;0.60;0.60;;;7.00;99.90;;;;;;5029126;28;20404;-87
2023/04/12 05:58:44;;;;;;;0.40;0.40;;;7.00;99.90;;;;;;5027882;28;20046;-91
2023/04/12 06:01:09;;;;;;;0.50;0.50;;;7.00;99.90;;;;;;5015658;28;20040;-91
2023/04/12 06:03:36;;;;;;;0.60;0.60;;;7.10;99.90;;;;;;5022959;28;20049;-87
2023/04/12 06:06:02;;;;;;;0.80;0.80;;;7.10;99.90;;;;;;5036763;28;20072;-87
2023/04/12 06:08:29;;;;;;;0.60;0.60;;;7.00;99.90;;;;;;5024791;28;20052;-91
2023/04/12 06:10:54;;;;;;;0.50;0.50;;;7.10;99.90;;;;;;5013430;28;20077;-92
2023/04/12 06:13:21;;;;;;;0.43;0.43;;;7.00;99.90;;;;;;5005227;28;20074;-90
2023/04/12 06:15:46;;;;;;;0.50;0.50;;;7.00;99.90;;;;;;5012966;28;20091;-90
2023/04/12 06:18:12;;;;;;;0.50;0.50;;;7.10;99.90;;;;;;5029737;28;20541;-89
2023/04/12 06:20:39;;;;;;;0.43;0.43;;;7.10;99.90;;;;;;5027007;28;20057;-92
2023/04/12 06:23:05;;;;;;;0.40;0.40;;;7.10;99.90;;;;;;5026939;28;20083;-90
2023/04/12 06:25:31;;;;;;;;;;;7.00;99.90;;;;;;5032032;28;20412;-91
2023/04/12 06:27:56;;;;;;;0.43;0.43;;;7.00;99.90;;;;;;5029745;28;19976;-90
2023/04/12 06:30:22;;;;;;;0.50;0.50;;;7.10;99.90;;;;;;4990430;28;20119;-89
2023/04/12 06:32:48;;;;;;;0.60;0.60;;;7.10;99.90;;;;;;5010964;28;20416;-90
2023/04/12 06:35:14;;;;;;;0.60;0.60;;;7.10;99.90;;;;;;5005654;28;20557;-90
2023/04/12 06:37:40;;;;;;;0.57;0.57;;;7.00;99.90;;;;;;5029276;28;20049;-92
2023/04/12 06:40:06;;;;;;;;;;;7.10;99.90;;;;;;5015590;28;20124;-89
2023/04/12 06:42:32;;;;;;;0.70;0.70;;;7.10;99.90;;;;;;5028612;28;19925;-92
2023/04/12 06:44:57;;;;;;;0.50;0.50;;;7.10;99.90;;;;;;5008318;28;20127;-88
2023/04/12 06:47:24;;;;;;;0.52;0.52;;;7.10;99.90;;;;;;5029265;28;20424;-90
2023/04/12 06:49:51;;;;;;;0.50;0.50;;;7.10;99.90;;;;;;5031336;28;20037;-93
2023/04/12 06:52:17;;;;;;;0.40;0.40;;;7.10;99.90;;;;;;5031044;28;20156;-92
2023/04/12 06:54:43;;;;;;;0.43;0.43;;;7.10;99.90;;;;;;5044074;28;20076;-91
2023/04/12 06:57:10;;;;;;;0.40;0.40;;;7.10;99.90;;;;;;5013878;28;20056;-92
2023/04/12 06:59:35;;;;;;;0.60;0.60;;;7.10;99.90;;;;;;5024773;28;20480;-92
2023/04/12 07:02:01;;;;;;;0.50;0.50;;;7.10;99.90;;;;;;5018281;28;20206;-92
2023/04/12 07:04:27;;;;;;;0.52;0.52;;;7.20;99.90;;;;;;5034868;28;20033;-90
2023/04/12 07:06:53;;;;;;;0.40;0.40;;;7.20;99.90;;;;;;5029914;28;20055;-91
2023/04/12 07:09:19;;;;;;;0.57;0.57;;;7.20;99.90;;;;;;5015106;28;20391;-91
2023/04/12 07:11:46;;;;;;;0.40;0.40;;;7.20;99.90;;;;;;5027727;28;20045;-92
2023/04/12 07:14:11;;;;;;;;;;;7.20;99.90;;;;;;5045731;28;20044;-95
2023/04/12 07:16:37;;;;;;;0.40;0.40;;;7.20;99.90;;;;;;5030646;28;20537;-93
2023/04/12 07:19:03;;;;;;;0.65;0.65;;;7.20;99.90;;;;;;5000524;28;20061;-92
2023/04/12 07:21:28;;;;;;;0.47;0.47;;;7.20;99.90;;;;;;4989501;28;20048;-93
2023/04/12 07:23:55;;;;;;;0.50;0.50;;;7.20;99.90;;;;;;5028978;28;20056;-93
2023/04/12 07:26:20;;;;;;;;;;;7.20;99.90;;;;;;5024939;28;20048;-93
2023/04/12 07:28:46;;;;;;;0.50;0.50;;;7.20;99.90;;;;;;4996584;28;20352;-95
2023/04/12 07:31:12;;;;;;;0.40;0.40;;;7.20;99.90;;;;;;5029277;28;20081;-89
2023/04/12 07:33:37;;;;;;;0.47;0.47;;;7.20;99.90;;;;;;5026823;28;20057;-92
2023/04/12 07:36:04;;;;;;;0.60;0.60;;;7.40;99.90;;;;;;5014143;28;20053;-88
2023/04/12 07:38:29;;;;;;;0.40;0.40;;;7.20;99.90;;;;;;5021094;28;20125;-89
2023/04/12 07:40:56;;;;;;;0.45;0.45;;;7.20;99.90;;;;;;5029367;28;20429;-90
2023/04/12 07:43:21;;;;;;;;;;;7.20;99.90;;;;;;5024367;28;20077;-90
2023/04/12 07:45:48;;;;;;;0.52;0.52;;;7.20;99.90;;;;;;5028463;28;20338;-91
2023/04/12 07:48:13;;;;;;;0.38;0.38;;;7.30;99.90;;;;;;5026162;28;20125;-92
2023/04/12 07:50:40;;;;;;;0.50;0.50;;;7.20;99.90;;;;;;5012209;28;20099;-92
2023/04/12 07:53:22;;;;;;;0.40;0.40;;;7.30;99.90;;;;;;5022261;28;20052;-89
2023/04/12 07:55:49;;;;;;;0.57;0.57;;;7.30;99.90;;;;;;5025135;28;20141;-88
2023/04/12 07:58:15;;;;;;;;;;;7.30;99.90;;;;;;5024786;28;20041;-91
2023/04/12 08:00:41;;;;;;;0.50;0.50;;;7.30;99.90;;;;;;5025710;28;19932;-93
2023/04/12 08:03:07;;;;;;;;;;;7.40;99.90;;;;;;5025721;28;20911;-91
2023/04/12 08:05:34;;;;;;;0.60;0.60;;;7.40;99.90;;;;;;5023634;28;19979;-90
2023/04/12 08:07:59;;;;;;;0.47;0.47;;;7.40;99.90;;;;;;5010226;28;20061;-92
2023/04/12 08:10:25;;;;;;;0.50;0.50;;;7.40;99.90;;;;;;5028987;28;20160;-93
2023/04/12 08:12:51;;;;;;;0.60;0.60;;;8.30;99.90;;;;;;5027507;28;20037;-89
2023/04/12 08:15:16;;;;;;;0.47;0.47;;;7.30;99.90;;;;;;5030785;28;20042;-91
2023/04/12 08:17:42;;;;;;;0.60;0.60;;;7.50;99.90;;;;;;5029415;28;20463;-91
2023/04/12 08:20:09;;;;;;;0.47;0.47;;;7.60;99.90;;;;;;5032555;28;20045;-86
2023/04/12 08:22:35;;;;;;;0.40;0.40;;;7.60;99.90;;;;;;5024924;28;20813;-91
2023/04/12 08:25:00;;;;;;;0.40;0.40;;;7.70;99.90;;;;;;5012265;28;20060;-91
2023/04/12 08:27:28;;;;;;;0.60;0.60;;;7.80;99.90;;;;;;5025192;28;20141;-91
2023/04/12 08:29:54;;;;;;;0.50;0.50;;;7.90;99.90;;;;;;5028377;28;20052;-88
2023/04/12 08:32:20;;;;;;;0.50;0.50;;;7.90;99.90;;;;;;4996765;28;20041;-90
2023/04/12 08:34:46;;;;;;;0.70;0.70;;;7.90;99.90;;;;;;5013198;28;20473;-92
2023/04/12 08:37:11;;;;;;;0.50;0.50;;;7.90;99.90;;;;;;5013927;28;20049;-87
2023/04/12 08:39:37;;;;;;;1.10;1.10;;;7.90;99.90;;;;;;5024289;28;20045;-90
2023/04/12 08:42:03;;;;;;;0.30;0.30;;;7.90;99.90;;;;;;4996473;28;20508;-91
2023/04/12 08:44:34;;;;;;;;;;;8.00;99.90;;;;;;5025903;28;20128;-90
2023/04/12 08:47:04;;;;;;;0.57;0.57;;;8.10;99.90;;;;;;5031162;28;19925;-90
2023/04/12 08:49:32;;;;;;;0.47;0.47;;;8.10;99.90;;;;;;5014222;28;20053;-90
2023/04/12 08:52:01;;;;;;;0.50;0.50;;;8.20;99.90;;;;;;5039629;28;20052;-90
2023/04/12 08:54:27;;;;;;;0.50;0.50;;;8.20;99.90;;;;;;5031330;28;20064;-90
2023/04/12 08:57:01;;;;;;;;;;;8.20;99.90;;;;;;5008904;28;22033;-88
2023/04/12 08:59:28;;;;;;;0.40;0.40;;;8.10;99.90;;;;;;5035844;28;20012;-88
2023/04/12 09:01:55;;;;;;;0.50;0.50;;;8.20;99.90;;;;;;5029903;28;20567;-90
2023/04/12 09:04:21;;;;;;;0.50;0.50;;;8.20;99.90;;;;;;5016974;28;20416;-90
2023/04/12 09:06:47;;;;;;;0.40;0.40;;;8.20;99.90;;;;;;5028067;28;20105;-91
2023/04/12 09:09:13;;;;;;;0.50;0.50;;;8.20;99.90;;;;;;5019496;28;20076;-89
2023/04/12 09:11:39;;;;;;;0.40;0.40;;;8.20;99.90;;;;;;5030389;28;20041;-90
2023/04/12 09:14:24;;;;;;;;;;;8.20;99.90;;;;;;5007080;28;20046;-91
2023/04/12 09:16:50;;;;;;;0.63;0.63;;;8.20;99.90;;;;;;5031906;28;19925;-86
2023/04/12 09:19:29;;;;;;;0.43;0.43;;;8.30;99.90;;;;;;5031506;28;20080;-87
2023/04/12 09:21:55;;;;;;;0.50;0.50;;;8.40;99.90;;;;;;5028516;28;20045;-89
2023/04/12 09:24:24;;;;;;;0.52;0.52;;;8.50;99.90;;;;;;5009948;28;20045;-91
2023/04/12 09:27:06;;;;;;;0.50;0.50;;;8.50;99.90;;;;;;4999132;28;20130;-91
2023/04/12 09:29:33;;;;;;;0.50;0.50;;;8.60;99.90;;;;;;5010557;28;20124;-89
2023/04/12 09:32:07;;;;;;;0.45;0.45;;;8.60;99.90;;;;;;5027413;28;20041;-89
2023/04/12 09:34:34;;;;;;;0.40;0.40;;;8.60;99.90;;;;;;5010780;28;20049;-90
2023/04/12 09:37:15;;;;;;;0.45;0.45;;;8.70;99.90;;;;;;5027747;28;20041;-88
2023/04/12 09:39:41;;;;;;;2.45;2.28;;;8.80;99.90;;;;;;5032403;28;20477;-92
2023/04/12 09:42:09;;;;;;;0.50;0.50;;;9.00;99.90;;;;;;5014651;28;20785;-91
2023/04/12 09:44:36;;;;;;;0.40;0.40;;;9.10;99.90;;;;;;5030672;28;20049;-90
2023/04/12 09:47:03;;;;;;;0.40;0.40;;;9.20;99.90;;;;;;5023818;28;20107;-91
2023/04/12 09:49:40;;;;;;;0.40;0.40;;;9.20;99.90;;;;;;5014265;28;20084;-90
2023/04/12 09:52:06;;;;;;;;;;;9.40;99.90;;;;;;5030337;28;20124;-90
2023/04/12 09:54:43;;;;;;;0.60;0.60;;;9.70;99.90;;;;;;5026779;28;19929;-89
2023/04/12 09:57:10;;;;;;;0.45;0.45;;;10.10;99.90;;;;;;5027804;28;20536;-90
2023/04/12 09:59:40;;;;;;;0.40;0.40;;;10.30;99.90;;;;;;5032140;28;20060;-88
2023/04/12 10:02:17;;;;;;;0.40;0.40;;;10.50;99.90;;;;;;5029647;28;20037;-90
2023/04/12 10:04:43;;;;;;;0.63;0.63;;;10.70;99.90;;;;;;5039097;28;20876;-91
2023/04/12 10:07:09;;;;;;;0.60;0.60;;;10.70;99.90;;;;;;5029449;28;20057;-88
2023/04/12 10:09:39;;;;;;;0.45;0.45;;;10.70;99.90;;;;;;5030952;28;20107;-86
2023/04/12 10:12:06;;;;;;;0.43;0.43;;;10.70;99.90;;;;;;5030080;28;20083;-92
2023/04/12 10:14:31;;;;;;;0.50;0.50;;;10.80;99.90;;;;;;5029923;28;20594;-89
2023/04/12 10:16:59;;;;;;;0.40;0.40;;;10.70;99.90;;;;;;5034140;28;20045;-86
2023/04/12 10:19:28;;;;;;;0.63;0.63;;;10.80;99.90;;;;;;5028415;28;20048;-87
2023/04/12 10:21:55;;;;;;;0.50;0.50;;;11.00;99.90;;;;;;5030398;28;20834;-88
2023/04/12 10:24:25;;;;;;;0.95;0.95;;;11.10;99.90;;;;;;5026916;28;20657;-89
2023/04/12 10:26:52;;;;;;;0.50;0.50;;;11.20;99.90;;;;;;5014789;28;20061;-88
2023/04/12 10:29:32;;;;;;;0.50;0.50;;;11.40;99.90;;;;;;5027447;28;20053;-89
2023/04/12 10:32:23;;;;;;;0.52;0.50;;;11.40;99.90;;;;;;5023247;28;20069;-88
2023/04/12 10:34:53;;;;;;;1.02;0.88;;;11.50;99.90;;;;;;5012442;28;20064;-89
2023/04/12 10:37:19;;;;;;;0.55;0.55;;;11.70;99.90;;;;;;5027467;28;20064;-90
2023/04/12 10:39:52;;;;;;;0.70;0.70;;;11.80;99.90;;;;;;5028008;28;20481;-87
2023/04/12 10:42:22;;;;;;;0.47;0.47;;;12.10;99.90;;;;;;5022059;28;20064;-86
2023/04/12 10:44:55;;;;;;;0.43;0.43;;;12.40;99.90;;;;;;5024722;28;20061;-86
2023/04/12 10:47:53;;;;;;;1.08;0.98;;;12.60;99.90;;;;;;5008629;28;20057;-87
2023/04/12 10:50:32;;;;;;;1.25;1.15;;;12.60;99.90;;;;;;5005801;28;20049;-86
2023/04/12 10:53:17;;;;;;;0.30;0.30;;;12.60;99.90;;;;;;5025810;28;20074;-86
2023/04/12 10:55:44;;;;;;;0.55;0.55;;;12.40;99.90;;;;;;5028518;28;20511;-87
2023/04/12 10:58:10;;;;;;;0.63;0.63;;;12.20;99.90;;;;;;5010486;28;20049;-87
2023/04/12 11:01:05;;;;;;;0.50;0.50;;;12.20;99.90;;;;;;5026932;28;20164;-86
2023/04/12 11:03:31;;;;;;;1.33;1.02;;;12.60;99.90;;;;;;5027275;28;20051;-89
2023/04/12 11:06:01;;;;;;;0.60;0.60;;;12.60;99.90;;;;;;5029014;28;20062;-87
2023/04/12 11:08:28;;;;;;;0.73;0.73;;;12.60;99.90;;;;;;5027161;28;20053;-85
2023/04/12 11:11:02;;;;;;;0.32;0.32;;;12.70;99.90;;;;;;5027743;28;20205;-89
2023/04/12 11:13:33;;;;;;;0.60;0.60;;;12.90;99.90;;;;;;5022317;28;20057;-84
2023/04/12 11:16:06;;;;;;;0.52;0.52;;;13.00;99.90;;;;;;5041805;28;20049;-89
2023/04/12 11:18:34;;;;;;;0.45;0.45;;;13.10;99.90;;;;;;5029161;28;20085;-87
2023/04/12 11:21:01;;;;;;;1.00;1.00;;;12.90;99.90;;;;;;5026446;28;20041;-89
2023/04/12 11:23:27;;;;;;;0.43;0.43;;;12.80;99.90;;;;;;5010725;28;20060;-87
2023/04/12 11:25:53;;;;;;;0.30;0.30;;;12.70;99.90;;;;;;5026095;28;20037;-87
2023/04/12 11:28:20;;;;;;;0.30;0.30;;;12.60;99.90;;;;;;5040337;28;20437;-88
2023/04/12 11:30:52;;;;;;;9.32;0.75;;;12.60;99.90;;;;;;5011340;28;20053;-89
2023/04/12 11:33:40;;;;;;;0.40;0.40;;;12.70;99.90;;;;;;5030236;28;20103;-86
2023/04/12 11:36:11;;;;;;;0.40;0.40;;;12.80;99.90;;;;;;5028559;28;20049;-90
2023/04/12 11:38:37;;;;;;;0.50;0.50;;;12.80;99.90;;;;;;5029990;28;20140;-87
2023/04/12 11:41:05;;;;;;;;;;;12.80;99.90;;;;;;5011390;28;20140;-86
2023/04/12 11:43:37;;;;;;;1.90;0.77;;;12.70;99.90;;;;;;5029261;28;19970;-82
2023/04/12 11:46:03;;;;;;;0.30;0.30;;;12.40;99.90;;;;;;5023468;28;20116;-88
2023/04/12 11:48:29;;;;;;;0.50;0.50;;;12.40;99.90;;;;;;5022282;28;20045;-87
2023/04/12 11:50:58;;;;;;;;;;;12.30;99.90;;;;;;5023140;28;20079;-88
2023/04/12 11:53:28;;;;;;;0.50;0.50;;;12.10;99.90;;;;;;5025651;28;20011;-87
2023/04/12 11:55:57;;;;;;;0.40;0.40;;;12.10;99.90;;;;;;5025667;28;20115;-89
2023/04/12 11:58:26;;;;;;;1.30;0.75;;;12.10;99.90;;;;;;5025485;28;20739;-87
2023/04/12 12:00:52;;;;;;;0.40;0.40;;;12.20;99.90;;;;;;5023784;28;20061;-89
2023/04/12 12:03:18;;;;;;;;;;;12.40;99.90;;;;;;5024888;28;20133;-87
2023/04/12 12:05:45;;;;;;;0.55;0.55;;;12.60;99.90;;;;;;5023816;28;19940;-85
2023/04/12 12:08:11;;;;;;;0.35;0.35;;;12.70;99.90;;;;;;5027935;28;20472;-88
2023/04/12 12:10:39;;;;;;;0.30;0.30;;;12.80;99.90;;;;;;5026250;28;20516;-85
2023/04/12 12:13:11;;;;;;;0.40;0.40;;;12.90;99.90;;;;;;5026436;28;20041;-86
2023/04/12 12:15:37;;;;;;;0.40;0.40;;;12.90;99.90;;;;;;5021994;28;20057;-88
2023/04/12 12:18:07;;;;;;;0.35;0.35;;;12.70;99.90;;;;;;5026173;28;21774;-87
2023/04/12 12:20:37;;;;;;;0.40;0.40;;;12.50;99.90;;;;;;5022965;28;20060;-90
2023/04/12 12:23:03;;;;;;;0.73;0.73;;;12.50;99.90;;;;;;5010983;28;20065;-87
2023/04/12 12:25:29;;;;;;;0.40;0.40;;;12.50;99.90;;;;;;5027118;28;20144;-88
2023/04/12 12:27:58;;;;;;;0.40;0.40;;;12.40;99.90;;;;;;5014692;28;20060;-89
2023/04/12 12:30:24;;;;;;;0.40;0.40;;;12.40;99.90;;;;;;5032006;28;20440;-86
2023/04/12 12:32:51;;;;;;;;;;;12.30;99.90;;;;;;5030819;28;20033;-86
2023/04/12 12:35:18;;;;;;;0.52;0.52;;;12.30;99.90;;;;;;5030932;28;19973;-87
2023/04/12 12:37:52;;;;;;;0.30;0.30;;;12.30;99.90;;;;;;5032252;28;20057;-88
2023/04/12 12:40:26;;;;;;;0.68;0.68;;;12.30;99.90;;;;;;5030525;28;20120;-88
2023/04/12 12:42:54;;;;;;;0.43;0.43;;;12.30;99.90;;;;;;5028877;28;20053;-88
2023/04/12 12:45:22;;;;;;;0.30;0.30;;;12.40;99.90;;;;;;5025607;28;20041;-88
2023/04/12 12:48:00;;;;;;;0.40;0.40;;;12.50;99.90;;;;;;5022466;28;20117;-87
2023/04/12 12:50:29;;;;;;;0.40;0.40;;;12.60;99.90;;;;;;5025706;28;20053;-89
2023/04/12 12:52:56;;;;;;;0.30;0.30;;;12.70;99.90;;;;;;5034507;28;20056;-87
2023/04/12 12:55:47;;;;;;;0.38;0.38;;;12.80;99.90;;;;;;5044891;28;20033;-89
2023/04/12 12:58:13;;;;;;;0.40;0.40;;;13.00;99.90;;;;;;5014785;28;20087;-90
2023/04/12 13:00:40;;;;;;;0.30;0.30;;;13.10;99.90;;;;;;5027573;28;20061;-84
2023/04/12 13:03:06;;;;;;;0.30;0.30;;;13.40;99.90;;;;;;5006188;28;20053;-88